sensor_id;sensor_type;location;lat;lon;timestamp;P1;durP1;ratioP1;P2;durP2;ratioP2
16612;SDS011;8419;52.358;9.752;2023-06-19T00:00:14;4.05;;;3.12;;
16612;SDS011;8419;52.358;9.752;2023-06-19T00:03:01;4.50;;;3.60;;
16612;SDS011;8419;52.358;9.752;2023-06-19T00:05:47;4.15;;;3.62;;
16612;SDS011;8419;52.358;9.752;2023-06-19T00:08:32;3.78;;;3.30;;
16612;SDS011;8419;52.358;9.752;2023-06-19T00:11:18;3.80;;;3.22;;
16612;SDS011;8419;52.358;9.752;2023-06-19T00:14:03;3.78;;;3.37;;
16612;SDS011;8419;52.358;9.752;2023-06-19T00:16:49;3.80;;;3.35;;
16612;SDS011;8419;52.358;9.752;2023-06-19T00:19:35;4.57;;;3.95;;
16612;SDS011;8419;52.358;9.752;2023-06-19T00:22:21;3.70;;;3.40;;
16612;SDS011;8419;52.358;9.752;2023-06-19T00:25:10;4.20;;;3.80;;
16612;SDS011;8419;52.358;9.752;2023-06-19T00:27:56;4.25;;;3.83;;
16612;SDS011;8419;52.358;9.752;2023-06-19T00:30:41;5.15;;;3.40;;
16612;SDS011;8419;52.358;9.752;2023-06-19T00:33:27;4.20;;;3.80;;
16612;SDS011;8419;52.358;9.752;2023-06-19T00:36:14;3.50;;;3.10;;
16612;SDS011;8419;52.358;9.752;2023-06-19T00:39:04;3.85;;;3.50;;
16612;SDS011;8419;52.358;9.752;2023-06-19T00:41:50;6.55;;;3.92;;
16612;SDS011;8419;52.358;9.752;2023-06-19T00:44:37;4.10;;;3.28;;
16612;SDS011;8419;52.358;9.752;2023-06-19T00:47:23;4.32;;;3.92;;
16612;SDS011;8419;52.358;9.752;2023-06-19T00:50:10;4.20;;;3.58;;
16612;SDS011;8419;52.358;9.752;2023-06-19T00:52:56;3.97;;;3.42;;
16612;SDS011;8419;52.358;9.752;2023-06-19T00:55:42;5.55;;;3.78;;
16612;SDS011;8419;52.358;9.752;2023-06-19T00:58:28;4.60;;;3.47;;
16612;SDS011;8419;52.358;9.752;2023-06-19T01:01:13;5.80;;;3.35;;
16612;SDS011;8419;52.358;9.752;2023-06-19T01:03:59;7.57;;;4.05;;
16612;SDS011;8419;52.358;9.752;2023-06-19T01:06:46;4.10;;;3.78;;
16612;SDS011;8419;52.358;9.752;2023-06-19T01:09:43;4.35;;;3.55;;
16612;SDS011;8419;52.358;9.752;2023-06-19T01:12:34;4.32;;;3.83;;
16612;SDS011;8419;52.358;9.752;2023-06-19T01:15:22;3.90;;;3.53;;
16612;SDS011;8419;52.358;9.752;2023-06-19T01:18:08;4.10;;;3.55;;
16612;SDS011;8419;52.358;9.752;2023-06-19T01:20:55;4.95;;;3.75;;
16612;SDS011;8419;52.358;9.752;2023-06-19T01:23:41;6.97;;;3.25;;
16612;SDS011;8419;52.358;9.752;2023-06-19T01:26:27;4.37;;;3.97;;
16612;SDS011;8419;52.358;9.752;2023-06-19T01:29:13;4.65;;;3.30;;
16612;SDS011;8419;52.358;9.752;2023-06-19T01:32:02;4.22;;;3.60;;
16612;SDS011;8419;52.358;9.752;2023-06-19T01:34:54;5.97;;;4.40;;
16612;SDS011;8419;52.358;9.752;2023-06-19T01:37:42;3.90;;;3.50;;
16612;SDS011;8419;52.358;9.752;2023-06-19T01:40:29;5.60;;;3.72;;
16612;SDS011;8419;52.358;9.752;2023-06-19T01:43:16;3.72;;;3.37;;
16612;SDS011;8419;52.358;9.752;2023-06-19T01:46:03;4.53;;;3.65;;
16612;SDS011;8419;52.358;9.752;2023-06-19T01:48:48;4.50;;;3.85;;
16612;SDS011;8419;52.358;9.752;2023-06-19T01:51:34;5.37;;;3.37;;
16612;SDS011;8419;52.358;9.752;2023-06-19T01:54:20;4.00;;;3.33;;
16612;SDS011;8419;52.358;9.752;2023-06-19T01:57:06;4.68;;;3.40;;
16612;SDS011;8419;52.358;9.752;2023-06-19T01:59:52;7.37;;;3.55;;
16612;SDS011;8419;52.358;9.752;2023-06-19T02:02:38;5.78;;;3.60;;
16612;SDS011;8419;52.358;9.752;2023-06-19T02:05:23;4.15;;;3.75;;
16612;SDS011;8419;52.358;9.752;2023-06-19T02:08:09;4.50;;;3.30;;
16612;SDS011;8419;52.358;9.752;2023-06-19T02:10:55;3.83;;;3.22;;
16612;SDS011;8419;52.358;9.752;2023-06-19T02:13:40;3.78;;;3.37;;
16612;SDS011;8419;52.358;9.752;2023-06-19T02:16:26;4.30;;;3.75;;
16612;SDS011;8419;52.358;9.752;2023-06-19T02:19:12;3.72;;;3.37;;
16612;SDS011;8419;52.358;9.752;2023-06-19T02:21:58;3.50;;;3.20;;
16612;SDS011;8419;52.358;9.752;2023-06-19T02:24:43;3.83;;;3.42;;
16612;SDS011;8419;52.358;9.752;2023-06-19T02:27:28;3.90;;;3.50;;
16612;SDS011;8419;52.358;9.752;2023-06-19T02:30:14;5.78;;;3.60;;
16612;SDS011;8419;52.358;9.752;2023-06-19T02:33:00;5.57;;;3.37;;
16612;SDS011;8419;52.358;9.752;2023-06-19T02:35:46;3.97;;;3.58;;
16612;SDS011;8419;52.358;9.752;2023-06-19T02:38:31;4.55;;;3.30;;
16612;SDS011;8419;52.358;9.752;2023-06-19T02:41:16;6.10;;;3.45;;
16612;SDS011;8419;52.358;9.752;2023-06-19T02:44:03;4.12;;;3.72;;
16612;SDS011;8419;52.358;9.752;2023-06-19T02:46:48;4.97;;;3.47;;
16612;SDS011;8419;52.358;9.752;2023-06-19T02:49:33;5.32;;;3.87;;
16612;SDS011;8419;52.358;9.752;2023-06-19T02:52:19;7.57;;;3.50;;
16612;SDS011;8419;52.358;9.752;2023-06-19T02:55:05;5.85;;;3.42;;
16612;SDS011;8419;52.358;9.752;2023-06-19T02:57:52;3.87;;;3.47;;
16612;SDS011;8419;52.358;9.752;2023-06-19T03:00:38;4.95;;;3.62;;
16612;SDS011;8419;52.358;9.752;2023-06-19T03:03:23;3.87;;;3.40;;
16612;SDS011;8419;52.358;9.752;2023-06-19T03:06:08;4.40;;;4.00;;
16612;SDS011;8419;52.358;9.752;2023-06-19T03:08:54;4.30;;;3.47;;
16612;SDS011;8419;52.358;9.752;2023-06-19T03:11:40;3.95;;;3.37;;
16612;SDS011;8419;52.358;9.752;2023-06-19T03:14:26;4.05;;;3.53;;
16612;SDS011;8419;52.358;9.752;2023-06-19T03:17:12;3.83;;;3.42;;
16612;SDS011;8419;52.358;9.752;2023-06-19T03:19:58;3.83;;;3.37;;
16612;SDS011;8419;52.358;9.752;2023-06-19T03:22:43;4.10;;;3.50;;
16612;SDS011;8419;52.358;9.752;2023-06-19T03:25:28;4.12;;;3.72;;
16612;SDS011;8419;52.358;9.752;2023-06-19T03:28:19;4.00;;;3.60;;
16612;SDS011;8419;52.358;9.752;2023-06-19T03:31:04;3.90;;;3.50;;
16612;SDS011;8419;52.358;9.752;2023-06-19T03:33:49;4.28;;;3.70;;
16612;SDS011;8419;52.358;9.752;2023-06-19T03:36:35;5.05;;;3.45;;
16612;SDS011;8419;52.358;9.752;2023-06-19T03:39:20;4.12;;;3.72;;
16612;SDS011;8419;52.358;9.752;2023-06-19T03:42:07;4.28;;;3.30;;
16612;SDS011;8419;52.358;9.752;2023-06-19T03:44:53;3.78;;;3.33;;
16612;SDS011;8419;52.358;9.752;2023-06-19T03:47:38;3.97;;;3.60;;
16612;SDS011;8419;52.358;9.752;2023-06-19T03:50:24;5.40;;;3.83;;
16612;SDS011;8419;52.358;9.752;2023-06-19T03:53:09;4.32;;;3.70;;
16612;SDS011;8419;52.358;9.752;2023-06-19T03:55:55;5.20;;;3.50;;
16612;SDS011;8419;52.358;9.752;2023-06-19T03:58:40;4.57;;;3.90;;
16612;SDS011;8419;52.358;9.752;2023-06-19T04:01:26;7.03;;;4.25;;
16612;SDS011;8419;52.358;9.752;2023-06-19T04:04:12;4.28;;;3.87;;
16612;SDS011;8419;52.358;9.752;2023-06-19T04:06:57;4.37;;;3.60;;
16612;SDS011;8419;52.358;9.752;2023-06-19T04:09:43;5.53;;;3.67;;
16612;SDS011;8419;52.358;9.752;2023-06-19T04:12:29;5.97;;;3.95;;
16612;SDS011;8419;52.358;9.752;2023-06-19T04:15:16;5.68;;;4.72;;
16612;SDS011;8419;52.358;9.752;2023-06-19T04:18:02;4.75;;;4.18;;
16612;SDS011;8419;52.358;9.752;2023-06-19T04:20:47;4.65;;;4.05;;
16612;SDS011;8419;52.358;9.752;2023-06-19T04:23:32;4.60;;;3.92;;
16612;SDS011;8419;52.358;9.752;2023-06-19T04:26:17;4.43;;;3.95;;
16612;SDS011;8419;52.358;9.752;2023-06-19T04:29:03;5.03;;;3.60;;
16612;SDS011;8419;52.358;9.752;2023-06-19T04:31:50;4.68;;;3.45;;
16612;SDS011;8419;52.358;9.752;2023-06-19T04:34:36;4.18;;;3.70;;
16612;SDS011;8419;52.358;9.752;2023-06-19T04:37:21;6.18;;;4.03;;
16612;SDS011;8419;52.358;9.752;2023-06-19T04:40:07;10.68;;;4.28;;
16612;SDS011;8419;52.358;9.752;2023-06-19T04:42:55;4.93;;;3.62;;
16612;SDS011;8419;52.358;9.752;2023-06-19T04:45:40;8.55;;;4.00;;
16612;SDS011;8419;52.358;9.752;2023-06-19T04:48:26;5.15;;;4.18;;
16612;SDS011;8419;52.358;9.752;2023-06-19T04:51:14;6.53;;;3.87;;
16612;SDS011;8419;52.358;9.752;2023-06-19T04:53:59;6.15;;;4.15;;
16612;SDS011;8419;52.358;9.752;2023-06-19T04:56:45;6.97;;;3.92;;
16612;SDS011;8419;52.358;9.752;2023-06-19T04:59:30;6.28;;;4.20;;
16612;SDS011;8419;52.358;9.752;2023-06-19T05:02:16;6.80;;;4.43;;
16612;SDS011;8419;52.358;9.752;2023-06-19T05:05:01;5.95;;;4.22;;
16612;SDS011;8419;52.358;9.752;2023-06-19T05:07:47;3.85;;;3.53;;
16612;SDS011;8419;52.358;9.752;2023-06-19T05:10:32;4.80;;;4.12;;
16612;SDS011;8419;52.358;9.752;2023-06-19T05:13:18;5.05;;;4.25;;
16612;SDS011;8419;52.358;9.752;2023-06-19T05:16:05;9.05;;;4.82;;
16612;SDS011;8419;52.358;9.752;2023-06-19T05:18:50;6.47;;;4.43;;
16612;SDS011;8419;52.358;9.752;2023-06-19T05:21:36;5.93;;;4.68;;
16612;SDS011;8419;52.358;9.752;2023-06-19T05:24:21;5.85;;;4.60;;
16612;SDS011;8419;52.358;9.752;2023-06-19T05:27:07;5.20;;;4.30;;
16612;SDS011;8419;52.358;9.752;2023-06-19T05:29:53;6.70;;;4.85;;
16612;SDS011;8419;52.358;9.752;2023-06-19T05:32:40;6.68;;;4.50;;
16612;SDS011;8419;52.358;9.752;2023-06-19T05:35:26;6.05;;;4.28;;
16612;SDS011;8419;52.358;9.752;2023-06-19T05:38:12;5.50;;;4.43;;
16612;SDS011;8419;52.358;9.752;2023-06-19T05:40:57;6.15;;;4.07;;
16612;SDS011;8419;52.358;9.752;2023-06-19T05:43:44;5.03;;;4.07;;
16612;SDS011;8419;52.358;9.752;2023-06-19T05:46:29;10.13;;;4.50;;
16612;SDS011;8419;52.358;9.752;2023-06-19T05:49:14;4.78;;;4.18;;
16612;SDS011;8419;52.358;9.752;2023-06-19T05:52:00;5.78;;;4.22;;
16612;SDS011;8419;52.358;9.752;2023-06-19T05:54:46;4.85;;;4.40;;
16612;SDS011;8419;52.358;9.752;2023-06-19T05:57:31;9.48;;;4.65;;
16612;SDS011;8419;52.358;9.752;2023-06-19T06:00:18;5.82;;;4.87;;
16612;SDS011;8419;52.358;9.752;2023-06-19T06:03:04;9.57;;;4.57;;
16612;SDS011;8419;52.358;9.752;2023-06-19T06:05:51;6.20;;;4.80;;
16612;SDS011;8419;52.358;9.752;2023-06-19T06:08:46;7.80;;;5.12;;
16612;SDS011;8419;52.358;9.752;2023-06-19T06:11:32;6.57;;;4.78;;
16612;SDS011;8419;52.358;9.752;2023-06-19T06:14:17;5.80;;;4.65;;
16612;SDS011;8419;52.358;9.752;2023-06-19T06:17:05;5.20;;;4.37;;
16612;SDS011;8419;52.358;9.752;2023-06-19T06:19:54;7.22;;;5.07;;
16612;SDS011;8419;52.358;9.752;2023-06-19T06:22:39;6.60;;;4.70;;
16612;SDS011;8419;52.358;9.752;2023-06-19T06:25:25;10.23;;;5.07;;
16612;SDS011;8419;52.358;9.752;2023-06-19T06:28:11;8.05;;;5.55;;
16612;SDS011;8419;52.358;9.752;2023-06-19T06:30:56;7.78;;;4.80;;
16612;SDS011;8419;52.358;9.752;2023-06-19T06:33:42;8.88;;;5.47;;
16612;SDS011;8419;52.358;9.752;2023-06-19T06:36:28;7.40;;;5.10;;
16612;SDS011;8419;52.358;9.752;2023-06-19T06:39:13;7.03;;;4.82;;
16612;SDS011;8419;52.358;9.752;2023-06-19T06:41:58;7.80;;;4.95;;
16612;SDS011;8419;52.358;9.752;2023-06-19T06:44:44;5.60;;;4.60;;
16612;SDS011;8419;52.358;9.752;2023-06-19T06:47:30;5.97;;;5.03;;
16612;SDS011;8419;52.358;9.752;2023-06-19T06:50:15;8.45;;;4.68;;
16612;SDS011;8419;52.358;9.752;2023-06-19T06:53:01;9.20;;;5.25;;
16612;SDS011;8419;52.358;9.752;2023-06-19T06:55:47;7.28;;;5.37;;
16612;SDS011;8419;52.358;9.752;2023-06-19T06:58:32;8.05;;;4.37;;
16612;SDS011;8419;52.358;9.752;2023-06-19T07:01:18;5.85;;;5.12;;
16612;SDS011;8419;52.358;9.752;2023-06-19T07:04:04;5.37;;;4.22;;
16612;SDS011;8419;52.358;9.752;2023-06-19T07:06:50;4.82;;;4.32;;
16612;SDS011;8419;52.358;9.752;2023-06-19T07:09:35;6.37;;;4.55;;
16612;SDS011;8419;52.358;9.752;2023-06-19T07:12:21;6.30;;;4.60;;
16612;SDS011;8419;52.358;9.752;2023-06-19T07:15:07;5.95;;;4.60;;
16612;SDS011;8419;52.358;9.752;2023-06-19T07:17:53;5.37;;;4.60;;
16612;SDS011;8419;52.358;9.752;2023-06-19T07:20:38;6.43;;;4.57;;
16612;SDS011;8419;52.358;9.752;2023-06-19T07:23:23;5.85;;;3.92;;
16612;SDS011;8419;52.358;9.752;2023-06-19T07:26:09;5.25;;;4.43;;
16612;SDS011;8419;52.358;9.752;2023-06-19T07:28:58;5.60;;;4.93;;
16612;SDS011;8419;52.358;9.752;2023-06-19T07:31:43;5.90;;;4.78;;
16612;SDS011;8419;52.358;9.752;2023-06-19T07:34:28;6.28;;;4.47;;
16612;SDS011;8419;52.358;9.752;2023-06-19T07:37:14;6.87;;;4.55;;
16612;SDS011;8419;52.358;9.752;2023-06-19T07:40:01;7.87;;;4.18;;
16612;SDS011;8419;52.358;9.752;2023-06-19T07:42:47;8.02;;;5.03;;
16612;SDS011;8419;52.358;9.752;2023-06-19T07:45:33;6.90;;;4.47;;
16612;SDS011;8419;52.358;9.752;2023-06-19T07:48:19;7.45;;;4.47;;
16612;SDS011;8419;52.358;9.752;2023-06-19T07:51:05;5.37;;;4.47;;
16612;SDS011;8419;52.358;9.752;2023-06-19T07:53:50;7.10;;;5.10;;
16612;SDS011;8419;52.358;9.752;2023-06-19T07:56:36;5.05;;;4.43;;
16612;SDS011;8419;52.358;9.752;2023-06-19T07:59:21;6.62;;;4.80;;
16612;SDS011;8419;52.358;9.752;2023-06-19T08:02:06;7.72;;;4.55;;
16612;SDS011;8419;52.358;9.752;2023-06-19T08:04:52;5.22;;;4.72;;
16612;SDS011;8419;52.358;9.752;2023-06-19T08:07:37;6.10;;;5.47;;
16612;SDS011;8419;52.358;9.752;2023-06-19T08:10:23;6.90;;;5.03;;
16612;SDS011;8419;52.358;9.752;2023-06-19T08:13:08;4.97;;;4.55;;
16612;SDS011;8419;52.358;9.752;2023-06-19T08:15:55;5.90;;;5.10;;
16612;SDS011;8419;52.358;9.752;2023-06-19T08:18:40;6.90;;;5.32;;
16612;SDS011;8419;52.358;9.752;2023-06-19T08:21:26;8.00;;;5.47;;
16612;SDS011;8419;52.358;9.752;2023-06-19T08:24:12;5.57;;;5.05;;
16612;SDS011;8419;52.358;9.752;2023-06-19T08:26:58;7.00;;;4.55;;
16612;SDS011;8419;52.358;9.752;2023-06-19T08:29:43;6.25;;;4.95;;
16612;SDS011;8419;52.358;9.752;2023-06-19T08:32:28;5.03;;;4.20;;
16612;SDS011;8419;52.358;9.752;2023-06-19T08:35:15;6.03;;;4.32;;
16612;SDS011;8419;52.358;9.752;2023-06-19T08:38:00;5.97;;;4.00;;
16612;SDS011;8419;52.358;9.752;2023-06-19T08:40:46;6.05;;;4.47;;
16612;SDS011;8419;52.358;9.752;2023-06-19T08:43:33;5.35;;;4.85;;
16612;SDS011;8419;52.358;9.752;2023-06-19T08:46:18;4.43;;;4.03;;
16612;SDS011;8419;52.358;9.752;2023-06-19T08:49:04;5.43;;;4.10;;
16612;SDS011;8419;52.358;9.752;2023-06-19T08:51:50;5.93;;;4.00;;
16612;SDS011;8419;52.358;9.752;2023-06-19T08:54:36;4.93;;;4.43;;
16612;SDS011;8419;52.358;9.752;2023-06-19T08:57:34;4.95;;;4.43;;
16612;SDS011;8419;52.358;9.752;2023-06-19T09:00:23;4.53;;;3.95;;
16612;SDS011;8419;52.358;9.752;2023-06-19T09:03:10;8.18;;;4.65;;
16612;SDS011;8419;52.358;9.752;2023-06-19T09:05:55;5.05;;;4.55;;
16612;SDS011;8419;52.358;9.752;2023-06-19T09:08:43;7.55;;;4.15;;
16612;SDS011;8419;52.358;9.752;2023-06-19T09:11:29;5.18;;;3.67;;
16612;SDS011;8419;52.358;9.752;2023-06-19T09:14:14;5.20;;;4.62;;
16612;SDS011;8419;52.358;9.752;2023-06-19T09:17:00;5.80;;;5.20;;
16612;SDS011;8419;52.358;9.752;2023-06-19T09:19:50;4.97;;;4.37;;
16612;SDS011;8419;52.358;9.752;2023-06-19T09:22:36;5.28;;;4.78;;
16612;SDS011;8419;52.358;9.752;2023-06-19T09:25:23;5.28;;;4.78;;
16612;SDS011;8419;52.358;9.752;2023-06-19T09:28:16;6.25;;;4.47;;
16612;SDS011;8419;52.358;9.752;2023-06-19T09:31:05;4.30;;;3.87;;
16612;SDS011;8419;52.358;9.752;2023-06-19T09:33:51;4.62;;;4.10;;
16612;SDS011;8419;52.358;9.752;2023-06-19T09:36:37;4.43;;;4.03;;
16612;SDS011;8419;52.358;9.752;2023-06-19T09:39:24;4.87;;;3.87;;
16612;SDS011;8419;52.358;9.752;2023-06-19T09:42:14;5.62;;;4.15;;
16612;SDS011;8419;52.358;9.752;2023-06-19T09:45:02;4.80;;;4.30;;
16612;SDS011;8419;52.358;9.752;2023-06-19T09:47:48;5.45;;;4.22;;
16612;SDS011;8419;52.358;9.752;2023-06-19T09:50:38;8.63;;;4.20;;
16612;SDS011;8419;52.358;9.752;2023-06-19T09:53:26;7.10;;;3.90;;
16612;SDS011;8419;52.358;9.752;2023-06-19T09:56:12;6.68;;;4.20;;
16612;SDS011;8419;52.358;9.752;2023-06-19T09:58:58;4.78;;;4.20;;
16612;SDS011;8419;52.358;9.752;2023-06-19T10:01:44;4.35;;;3.75;;
16612;SDS011;8419;52.358;9.752;2023-06-19T10:04:30;6.30;;;4.45;;
16612;SDS011;8419;52.358;9.752;2023-06-19T10:07:32;4.47;;;3.87;;
16612;SDS011;8419;52.358;9.752;2023-06-19T10:10:22;5.10;;;4.57;;
16612;SDS011;8419;52.358;9.752;2023-06-19T10:13:12;6.47;;;3.55;;
16612;SDS011;8419;52.358;9.752;2023-06-19T10:15:59;5.12;;;3.87;;
16612;SDS011;8419;52.358;9.752;2023-06-19T10:18:46;4.68;;;3.47;;
16612;SDS011;8419;52.358;9.752;2023-06-19T10:21:43;4.72;;;3.60;;
16612;SDS011;8419;52.358;9.752;2023-06-19T10:24:30;5.65;;;2.92;;
16612;SDS011;8419;52.358;9.752;2023-06-19T10:27:20;3.92;;;3.53;;
16612;SDS011;8419;52.358;9.752;2023-06-19T10:30:07;4.22;;;3.42;;
16612;SDS011;8419;52.358;9.752;2023-06-19T10:33:02;5.65;;;3.53;;
16612;SDS011;8419;52.358;9.752;2023-06-19T10:35:48;3.42;;;3.08;;
16612;SDS011;8419;52.358;9.752;2023-06-19T10:38:36;6.85;;;3.72;;
16612;SDS011;8419;52.358;9.752;2023-06-19T10:41:22;3.90;;;3.40;;
16612;SDS011;8419;52.358;9.752;2023-06-19T10:44:09;3.58;;;3.28;;
16612;SDS011;8419;52.358;9.752;2023-06-19T10:46:57;5.45;;;3.08;;
16612;SDS011;8419;52.358;9.752;2023-06-19T10:49:43;8.07;;;3.55;;
16612;SDS011;8419;52.358;9.752;2023-06-19T10:52:30;4.95;;;3.40;;
16612;SDS011;8419;52.358;9.752;2023-06-19T10:55:15;3.78;;;3.47;;
16612;SDS011;8419;52.358;9.752;2023-06-19T10:58:01;3.50;;;3.20;;
16612;SDS011;8419;52.358;9.752;2023-06-19T11:00:47;4.30;;;3.35;;
16612;SDS011;8419;52.358;9.752;2023-06-19T11:03:32;2.97;;;2.12;;
16612;SDS011;8419;52.358;9.752;2023-06-19T11:06:19;3.62;;;3.33;;
16612;SDS011;8419;52.358;9.752;2023-06-19T11:09:06;4.70;;;3.17;;
16612;SDS011;8419;52.358;9.752;2023-06-19T11:11:52;3.83;;;2.85;;
16612;SDS011;8419;52.358;9.752;2023-06-19T11:14:37;2.83;;;2.60;;
16612;SDS011;8419;52.358;9.752;2023-06-19T11:17:25;4.00;;;3.00;;
16612;SDS011;8419;52.358;9.752;2023-06-19T11:20:12;3.50;;;3.08;;
16612;SDS011;8419;52.358;9.752;2023-06-19T11:22:58;2.92;;;2.42;;
16612;SDS011;8419;52.358;9.752;2023-06-19T11:25:44;3.58;;;2.40;;
16612;SDS011;8419;52.358;9.752;2023-06-19T11:28:31;3.05;;;2.70;;
16612;SDS011;8419;52.358;9.752;2023-06-19T11:31:16;2.87;;;2.28;;
16612;SDS011;8419;52.358;9.752;2023-06-19T11:34:08;3.17;;;2.55;;
16612;SDS011;8419;52.358;9.752;2023-06-19T11:36:55;3.72;;;2.65;;
16612;SDS011;8419;52.358;9.752;2023-06-19T11:39:41;3.15;;;2.10;;
16612;SDS011;8419;52.358;9.752;2023-06-19T11:42:29;2.60;;;2.40;;
16612;SDS011;8419;52.358;9.752;2023-06-19T11:45:20;5.32;;;2.40;;
16612;SDS011;8419;52.358;9.752;2023-06-19T11:48:06;2.17;;;1.98;;
16612;SDS011;8419;52.358;9.752;2023-06-19T11:50:52;1.73;;;1.62;;
16612;SDS011;8419;52.358;9.752;2023-06-19T11:53:39;1.75;;;1.65;;
16612;SDS011;8419;52.358;9.752;2023-06-19T11:56:25;3.28;;;1.85;;
16612;SDS011;8419;52.358;9.752;2023-06-19T11:59:12;4.78;;;1.60;;
16612;SDS011;8419;52.358;9.752;2023-06-19T12:01:58;2.20;;;1.80;;
16612;SDS011;8419;52.358;9.752;2023-06-19T12:04:44;3.50;;;1.75;;
16612;SDS011;8419;52.358;9.752;2023-06-19T12:07:30;2.85;;;2.47;;
16612;SDS011;8419;52.358;9.752;2023-06-19T12:10:15;2.37;;;2.10;;
16612;SDS011;8419;52.358;9.752;2023-06-19T12:13:03;2.30;;;2.10;;
16612;SDS011;8419;52.358;9.752;2023-06-19T12:15:49;3.62;;;2.80;;
16612;SDS011;8419;52.358;9.752;2023-06-19T12:18:34;2.62;;;2.42;;
16612;SDS011;8419;52.358;9.752;2023-06-19T12:21:31;3.30;;;3.00;;
16612;SDS011;8419;52.358;9.752;2023-06-19T12:24:22;5.90;;;3.15;;
16612;SDS011;8419;52.358;9.752;2023-06-19T12:27:11;3.37;;;2.42;;
16612;SDS011;8419;52.358;9.752;2023-06-19T12:29:57;3.15;;;2.50;;
16612;SDS011;8419;52.358;9.752;2023-06-19T12:35:40;2.30;;;2.20;;
16612;SDS011;8419;52.358;9.752;2023-06-19T12:38:27;3.30;;;3.00;;
16612;SDS011;8419;52.358;9.752;2023-06-19T12:41:13;2.30;;;2.20;;
16612;SDS011;8419;52.358;9.752;2023-06-19T12:43:58;3.33;;;2.78;;
16612;SDS011;8419;52.358;9.752;2023-06-19T12:46:44;5.30;;;3.05;;
16612;SDS011;8419;52.358;9.752;2023-06-19T12:49:30;2.80;;;2.53;;
16612;SDS011;8419;52.358;9.752;2023-06-19T12:52:16;2.70;;;2.50;;
16612;SDS011;8419;52.358;9.752;2023-06-19T12:55:02;4.35;;;2.35;;
16612;SDS011;8419;52.358;9.752;2023-06-19T12:57:49;3.08;;;2.87;;
16612;SDS011;8419;52.358;9.752;2023-06-19T13:00:34;3.10;;;2.90;;
16612;SDS011;8419;52.358;9.752;2023-06-19T13:03:20;3.30;;;2.75;;
16612;SDS011;8419;52.358;9.752;2023-06-19T13:06:05;3.28;;;2.97;;
16612;SDS011;8419;52.358;9.752;2023-06-19T13:08:51;3.20;;;3.00;;
16612;SDS011;8419;52.358;9.752;2023-06-19T13:11:36;3.70;;;3.40;;
16612;SDS011;8419;52.358;9.752;2023-06-19T13:14:22;3.37;;;3.08;;
16612;SDS011;8419;52.358;9.752;2023-06-19T13:17:08;3.03;;;2.83;;
16612;SDS011;8419;52.358;9.752;2023-06-19T13:19:53;5.03;;;3.30;;
16612;SDS011;8419;52.358;9.752;2023-06-19T13:22:39;4.30;;;3.12;;
16612;SDS011;8419;52.358;9.752;2023-06-19T13:25:24;3.35;;;3.15;;
16612;SDS011;8419;52.358;9.752;2023-06-19T13:28:10;3.37;;;3.08;;
16612;SDS011;8419;52.358;9.752;2023-06-19T13:30:56;2.92;;;2.72;;
16612;SDS011;8419;52.358;9.752;2023-06-19T13:33:41;4.35;;;2.90;;
16612;SDS011;8419;52.358;9.752;2023-06-19T13:36:27;3.55;;;3.22;;
16612;SDS011;8419;52.358;9.752;2023-06-19T13:39:12;3.45;;;3.15;;
16612;SDS011;8419;52.358;9.752;2023-06-19T13:41:58;4.53;;;2.83;;
16612;SDS011;8419;52.358;9.752;2023-06-19T13:44:45;2.97;;;2.78;;
16612;SDS011;8419;52.358;9.752;2023-06-19T13:47:30;6.03;;;2.90;;
16612;SDS011;8419;52.358;9.752;2023-06-19T13:50:16;3.03;;;2.75;;
16612;SDS011;8419;52.358;9.752;2023-06-19T13:53:03;3.47;;;3.15;;
16612;SDS011;8419;52.358;9.752;2023-06-19T13:55:49;4.20;;;3.00;;
16612;SDS011;8419;52.358;9.752;2023-06-19T13:58:34;3.03;;;2.55;;
16612;SDS011;8419;52.358;9.752;2023-06-19T14:01:20;2.53;;;2.33;;
16612;SDS011;8419;52.358;9.752;2023-06-19T14:04:05;3.28;;;2.97;;
16612;SDS011;8419;52.358;9.752;2023-06-19T14:06:51;5.57;;;2.83;;
16612;SDS011;8419;52.358;9.752;2023-06-19T14:09:39;2.70;;;2.22;;
16612;SDS011;8419;52.358;9.752;2023-06-19T14:12:25;3.17;;;2.50;;
16612;SDS011;8419;52.358;9.752;2023-06-19T14:15:11;3.10;;;2.90;;
16612;SDS011;8419;52.358;9.752;2023-06-19T14:17:57;3.37;;;2.20;;
16612;SDS011;8419;52.358;9.752;2023-06-19T14:20:42;2.90;;;2.67;;
16612;SDS011;8419;52.358;9.752;2023-06-19T14:23:28;4.18;;;2.50;;
16612;SDS011;8419;52.358;9.752;2023-06-19T14:26:14;1.98;;;1.87;;
16612;SDS011;8419;52.358;9.752;2023-06-19T14:29:00;2.58;;;2.37;;
16612;SDS011;8419;52.358;9.752;2023-06-19T14:31:45;3.15;;;2.85;;
16612;SDS011;8419;52.358;9.752;2023-06-19T14:34:32;2.58;;;2.37;;
16612;SDS011;8419;52.358;9.752;2023-06-19T14:37:17;2.97;;;2.37;;
16612;SDS011;8419;52.358;9.752;2023-06-19T14:40:03;3.28;;;2.50;;
16612;SDS011;8419;52.358;9.752;2023-06-19T14:42:50;3.03;;;2.42;;
16612;SDS011;8419;52.358;9.752;2023-06-19T14:45:36;2.80;;;2.60;;
16612;SDS011;8419;52.358;9.752;2023-06-19T14:48:24;4.87;;;2.45;;
16612;SDS011;8419;52.358;9.752;2023-06-19T14:51:09;2.92;;;2.72;;
16612;SDS011;8419;52.358;9.752;2023-06-19T14:53:57;3.03;;;2.83;;
16612;SDS011;8419;52.358;9.752;2023-06-19T14:56:42;3.10;;;2.90;;
16612;SDS011;8419;52.358;9.752;2023-06-19T14:59:29;2.53;;;2.33;;
16612;SDS011;8419;52.358;9.752;2023-06-19T15:02:15;3.10;;;2.60;;
16612;SDS011;8419;52.358;9.752;2023-06-19T15:05:01;2.70;;;2.50;;
16612;SDS011;8419;52.358;9.752;2023-06-19T15:07:46;5.70;;;2.97;;
16612;SDS011;8419;52.358;9.752;2023-06-19T15:10:32;3.00;;;2.70;;
16612;SDS011;8419;52.358;9.752;2023-06-19T15:13:18;3.20;;;3.00;;
16612;SDS011;8419;52.358;9.752;2023-06-19T15:16:04;2.70;;;2.50;;
16612;SDS011;8419;52.358;9.752;2023-06-19T15:18:52;3.35;;;3.05;;
16612;SDS011;8419;52.358;9.752;2023-06-19T15:21:38;3.37;;;3.15;;
16612;SDS011;8419;52.358;9.752;2023-06-19T15:24:25;3.00;;;2.65;;
16612;SDS011;8419;52.358;9.752;2023-06-19T15:27:11;2.67;;;2.47;;
16612;SDS011;8419;52.358;9.752;2023-06-19T15:29:56;3.37;;;3.08;;
16612;SDS011;8419;52.358;9.752;2023-06-19T15:32:45;3.05;;;2.80;;
16612;SDS011;8419;52.358;9.752;2023-06-19T15:35:30;2.87;;;2.67;;
16612;SDS011;8419;52.358;9.752;2023-06-19T15:38:16;3.17;;;2.87;;
16612;SDS011;8419;52.358;9.752;2023-06-19T15:41:01;2.92;;;2.62;;
16612;SDS011;8419;52.358;9.752;2023-06-19T15:43:46;3.25;;;2.75;;
16612;SDS011;8419;52.358;9.752;2023-06-19T15:46:32;3.08;;;2.70;;
16612;SDS011;8419;52.358;9.752;2023-06-19T15:49:18;4.53;;;3.40;;
16612;SDS011;8419;52.358;9.752;2023-06-19T15:52:04;2.97;;;2.75;;
16612;SDS011;8419;52.358;9.752;2023-06-19T15:54:50;3.37;;;2.87;;
16612;SDS011;8419;52.358;9.752;2023-06-19T15:57:36;3.20;;;2.97;;
16612;SDS011;8419;52.358;9.752;2023-06-19T16:00:23;3.00;;;2.80;;
16612;SDS011;8419;52.358;9.752;2023-06-19T16:03:11;3.05;;;2.83;;
16612;SDS011;8419;52.358;9.752;2023-06-19T16:05:56;3.20;;;2.90;;
16612;SDS011;8419;52.358;9.752;2023-06-19T16:08:43;2.70;;;2.50;;
16612;SDS011;8419;52.358;9.752;2023-06-19T16:11:29;2.80;;;2.53;;
16612;SDS011;8419;52.358;9.752;2023-06-19T16:14:15;2.95;;;2.65;;
16612;SDS011;8419;52.358;9.752;2023-06-19T16:17:00;2.92;;;2.72;;
16612;SDS011;8419;52.358;9.752;2023-06-19T16:19:46;3.37;;;2.72;;
16612;SDS011;8419;52.358;9.752;2023-06-19T16:22:31;3.42;;;3.12;;
16612;SDS011;8419;52.358;9.752;2023-06-19T16:25:18;3.30;;;3.00;;
16612;SDS011;8419;52.358;9.752;2023-06-19T16:28:06;3.78;;;3.22;;
16612;SDS011;8419;52.358;9.752;2023-06-19T16:30:54;3.37;;;3.08;;
16612;SDS011;8419;52.358;9.752;2023-06-19T16:33:39;2.78;;;2.28;;
16612;SDS011;8419;52.358;9.752;2023-06-19T16:36:25;2.50;;;2.30;;
16612;SDS011;8419;52.358;9.752;2023-06-19T16:39:11;2.70;;;2.50;;
16612;SDS011;8419;52.358;9.752;2023-06-19T16:41:58;3.25;;;3.00;;
16612;SDS011;8419;52.358;9.752;2023-06-19T16:44:44;5.70;;;2.47;;
16612;SDS011;8419;52.358;9.752;2023-06-19T16:47:29;4.25;;;3.00;;
16612;SDS011;8419;52.358;9.752;2023-06-19T16:50:15;4.90;;;2.58;;
16612;SDS011;8419;52.358;9.752;2023-06-19T16:53:02;2.87;;;2.58;;
16612;SDS011;8419;52.358;9.752;2023-06-19T16:55:48;3.70;;;2.70;;
16612;SDS011;8419;52.358;9.752;2023-06-19T16:58:34;5.20;;;3.10;;